createdAt,value
2023-05-15T00:02:04.743Z,2.67
2023-05-15T00:04:33.443Z,3.17
2023-05-15T00:07:02.051Z,3.58
2023-05-15T00:09:30.349Z,2.72
2023-05-15T00:11:58.944Z,2.70
2023-05-15T00:14:27.181Z,3.05
2023-05-15T00:16:56.073Z,2.70
2023-05-15T00:19:24.204Z,2.92
2023-05-15T00:21:53.090Z,3.00
2023-05-15T00:24:22.125Z,2.90
2023-05-15T00:26:51.081Z,3.20
2023-05-15T00:29:19.778Z,3.88
2023-05-15T00:31:48.348Z,3.47
2023-05-15T00:34:16.567Z,3.15
2023-05-15T00:36:45.158Z,2.80
2023-05-15T00:39:13.538Z,2.78
2023-05-15T00:41:43.639Z,2.85
2023-05-15T00:44:12.376Z,2.80
2023-05-15T00:46:42.014Z,2.90
2023-05-15T00:49:13.776Z,2.47
2023-05-15T00:51:42.642Z,13.75
2023-05-15T00:54:11.606Z,2.80
2023-05-15T00:56:40.480Z,2.38
2023-05-15T00:59:09.175Z,2.47
2023-05-15T01:01:37.986Z,2.75
2023-05-15T01:04:06.355Z,2.95
2023-05-15T01:06:35.038Z,2.63
2023-05-15T01:09:04.251Z,2.95
2023-05-15T01:11:38.607Z,3.03
2023-05-15T01:14:08.862Z,3.03
2023-05-15T01:16:37.934Z,3.15
2023-05-15T01:19:06.238Z,3.25
2023-05-15T01:21:36.305Z,2.85
2023-05-15T01:24:38.794Z,2.63
2023-05-15T01:27:29.057Z,2.50
2023-05-15T01:30:15.343Z,2.90
2023-05-15T01:33:02.294Z,2.70
2023-05-15T01:35:47.100Z,2.85
2023-05-15T01:38:22.474Z,2.50
2023-05-15T01:41:10.530Z,2.38
2023-05-15T01:43:43.631Z,2.38
2023-05-15T01:46:16.483Z,2.47
2023-05-15T01:48:46.298Z,2.60
2023-05-15T01:51:15.018Z,2.85
2023-05-15T01:53:45.773Z,2.63
2023-05-15T01:56:15.601Z,2.58
2023-05-15T01:58:44.672Z,3.05
2023-05-15T02:01:14.208Z,3.00
2023-05-15T02:03:45.101Z,2.63
2023-05-15T02:06:14.419Z,2.65
2023-05-15T02:08:43.804Z,3.10
2023-05-15T02:11:13.483Z,2.92
2023-05-15T02:13:43.036Z,3.03
2023-05-15T02:16:11.764Z,2.90
2023-05-15T02:18:40.031Z,2.83
2023-05-15T02:21:08.803Z,2.53
2023-05-15T02:23:37.723Z,2.65
2023-05-15T02:26:31.432Z,2.70
2023-05-15T02:28:59.941Z,2.70
2023-05-15T02:31:41.175Z,3.00
2023-05-15T02:34:26.955Z,2.70
2023-05-15T02:36:57.057Z,2.97
2023-05-15T02:39:26.644Z,2.80
2023-05-15T02:41:55.024Z,3.35
2023-05-15T02:44:23.855Z,2.70
2023-05-15T02:46:53.784Z,2.53
2023-05-15T02:49:22.907Z,2.70
2023-05-15T02:51:51.443Z,2.70
2023-05-15T02:54:20.402Z,2.53
2023-05-15T02:56:48.692Z,2.70
2023-05-15T02:59:20.044Z,2.67
2023-05-15T03:01:48.818Z,3.22
2023-05-15T03:04:17.647Z,2.83
2023-05-15T03:06:45.960Z,3.50
2023-05-15T03:09:14.503Z,3.50
2023-05-15T03:11:42.921Z,2.90
2023-05-15T03:14:11.536Z,2.80
2023-05-15T03:16:39.938Z,2.75
2023-05-15T03:19:08.622Z,3.00
2023-05-15T03:21:36.810Z,3.10
2023-05-15T03:24:05.203Z,2.90
2023-05-15T03:26:33.663Z,3.00
2023-05-15T03:29:02.718Z,4.43
2023-05-15T03:31:30.989Z,2.72
2023-05-15T03:33:59.612Z,2.80
2023-05-15T03:36:27.614Z,2.90
2023-05-15T03:38:56.250Z,2.90
2023-05-15T03:41:26.140Z,3.45
2023-05-15T03:43:54.856Z,2.83
2023-05-15T03:46:23.082Z,3.03
2023-05-15T03:48:51.305Z,3.00
2023-05-15T03:51:19.739Z,2.83
2023-05-15T03:53:48.463Z,2.83
2023-05-15T03:56:16.660Z,3.20
2023-05-15T03:58:45.174Z,3.20
2023-05-15T04:01:13.379Z,3.50
2023-05-15T04:03:42.067Z,3.35
2023-05-15T04:06:10.350Z,2.85
2023-05-15T04:08:39.715Z,2.70
2023-05-15T04:11:08.661Z,3.10
2023-05-15T04:13:37.190Z,3.95
2023-05-15T04:16:05.304Z,3.33
2023-05-15T04:18:33.630Z,3.13
2023-05-15T04:21:01.651Z,2.90
2023-05-15T04:23:29.930Z,3.80
2023-05-15T04:25:57.975Z,2.90
2023-05-15T04:28:26.429Z,3.08
2023-05-15T04:30:55.337Z,3.80
2023-05-15T04:33:23.636Z,3.63
2023-05-15T04:35:53.311Z,2.92
2023-05-15T04:38:21.818Z,3.10
2023-05-15T04:40:50.525Z,2.72
2023-05-15T04:43:19.097Z,3.28
2023-05-15T04:45:47.095Z,2.90
2023-05-15T04:48:16.131Z,3.50
2023-05-15T04:50:44.191Z,3.08
2023-05-15T04:53:12.803Z,2.95
2023-05-15T04:55:41.153Z,2.78
2023-05-15T04:58:09.842Z,3.00
2023-05-15T05:00:38.391Z,3.08
2023-05-15T05:03:06.871Z,4.30
2023-05-15T05:05:35.371Z,2.97
2023-05-15T05:08:04.216Z,3.40
2023-05-15T05:10:32.371Z,3.08
2023-05-15T05:13:00.904Z,3.03
2023-05-15T05:15:29.101Z,3.60
2023-05-15T05:17:57.810Z,3.60
2023-05-15T05:20:26.702Z,3.30
2023-05-15T05:22:55.215Z,2.90
2023-05-15T05:25:23.312Z,3.42
2023-05-15T05:27:52.141Z,3.33
2023-05-15T05:30:20.240Z,4.65
2023-05-15T05:32:48.642Z,4.40
2023-05-15T05:35:17.145Z,4.03
2023-05-15T05:37:45.472Z,3.90
2023-05-15T05:40:13.592Z,3.55
2023-05-15T05:42:42.544Z,3.70
2023-05-15T05:45:11.560Z,3.55
2023-05-15T05:47:40.128Z,4.10
2023-05-15T05:50:08.879Z,4.13
2023-05-15T05:52:37.185Z,3.53
2023-05-15T05:55:05.576Z,3.40
2023-05-15T05:57:34.117Z,3.30
2023-05-15T06:00:02.390Z,3.95
2023-05-15T06:02:38.370Z,3.13
2023-05-15T06:05:07.667Z,3.33
2023-05-15T06:07:35.913Z,3.13
2023-05-15T06:10:04.145Z,3.53
2023-05-15T06:12:32.534Z,3.40
2023-05-15T06:15:00.683Z,3.15
2023-05-15T06:17:29.337Z,3.47
2023-05-15T06:19:57.593Z,3.08
2023-05-15T06:22:25.844Z,3.88
2023-05-15T06:24:53.795Z,3.80
2023-05-15T06:27:22.474Z,3.92
2023-05-15T06:29:50.319Z,6.65
2023-05-15T06:32:19.072Z,6.20
2023-05-15T06:34:47.321Z,6.00
2023-05-15T06:37:15.614Z,4.47
2023-05-15T06:39:43.574Z,3.63
2023-05-15T06:42:11.862Z,3.92
2023-05-15T06:44:42.388Z,3.92
2023-05-15T06:47:10.881Z,4.70
2023-05-15T06:49:38.926Z,3.45
2023-05-15T06:52:07.421Z,3.50
2023-05-15T06:54:35.525Z,3.50
2023-05-15T06:57:03.988Z,4.32
2023-05-15T06:59:34.591Z,4.00
2023-05-15T07:02:03.878Z,3.78
2023-05-15T07:04:32.719Z,4.57
2023-05-15T07:07:00.939Z,6.93
2023-05-15T07:09:29.091Z,9.13
2023-05-15T07:11:57.300Z,6.45
2023-05-15T07:14:25.305Z,6.00
2023-05-15T07:16:53.858Z,5.70
2023-05-15T07:19:22.719Z,4.97
2023-05-15T07:21:51.604Z,4.78
2023-05-15T07:24:21.383Z,6.72
2023-05-15T07:26:58.034Z,5.05
2023-05-15T07:29:27.089Z,5.00
2023-05-15T07:31:55.686Z,4.38
2023-05-15T07:34:24.092Z,5.18
2023-05-15T07:36:52.257Z,5.93
2023-05-15T07:39:20.467Z,4.60
2023-05-15T07:41:49.055Z,5.75
2023-05-15T07:44:17.198Z,5.57
2023-05-15T07:46:45.819Z,5.28
2023-05-15T07:49:14.018Z,5.30
2023-05-15T07:51:43.044Z,7.75
2023-05-15T07:54:10.974Z,4.60
2023-05-15T07:56:39.279Z,3.83
2023-05-15T07:59:07.840Z,4.30
2023-05-15T08:01:36.268Z,4.47
2023-05-15T08:04:07.891Z,5.00
2023-05-15T08:06:39.854Z,5.30
2023-05-15T08:09:08.429Z,7.32
2023-05-15T08:11:37.026Z,5.63
2023-05-15T08:14:05.279Z,5.80
2023-05-15T08:16:36.136Z,5.28
2023-05-15T08:19:06.985Z,6.30
2023-05-15T08:21:35.423Z,5.20
2023-05-15T08:24:03.553Z,6.55
2023-05-15T08:26:33.141Z,6.25
2023-05-15T08:29:03.840Z,5.90
2023-05-15T08:31:36.520Z,6.82
2023-05-15T08:34:06.118Z,6.43
2023-05-15T08:36:37.730Z,6.97
2023-05-15T08:39:09.424Z,7.55
2023-05-15T08:41:58.087Z,6.90
2023-05-15T08:44:28.289Z,6.38
2023-05-15T08:46:58.675Z,7.47
2023-05-15T08:49:56.366Z,7.10
2023-05-15T08:52:27.146Z,6.45
2023-05-15T08:54:57.262Z,6.13
2023-05-15T08:57:28.746Z,6.18
2023-05-15T09:00:00.192Z,7.03
2023-05-15T09:02:29.370Z,7.85
2023-05-15T09:04:57.537Z,7.28
2023-05-15T09:07:26.478Z,8.68
2023-05-15T09:09:55.907Z,7.20
2023-05-15T09:12:26.121Z,6.80
2023-05-15T09:15:17.334Z,7.35
2023-05-15T09:17:46.115Z,8.25
2023-05-15T09:20:35.255Z,7.35
2023-05-15T09:23:05.097Z,8.18
2023-05-15T09:25:34.520Z,7.78
2023-05-15T09:28:02.767Z,9.00
2023-05-15T09:30:31.452Z,7.13
2023-05-15T09:33:04.825Z,7.80
2023-05-15T09:35:40.716Z,8.38
2023-05-15T09:38:11.636Z,8.93
2023-05-15T09:40:43.033Z,10.13
2023-05-15T09:43:12.338Z,9.27
2023-05-15T09:45:40.597Z,11.73
2023-05-15T09:48:12.121Z,9.25
2023-05-15T09:50:41.214Z,9.43
2023-05-15T09:53:14.530Z,8.25
2023-05-15T09:55:44.005Z,9.10
2023-05-15T09:58:13.688Z,7.80
2023-05-15T10:00:48.673Z,7.50
2023-05-15T10:03:22.010Z,7.18
2023-05-15T10:05:50.908Z,9.13
2023-05-15T10:08:28.368Z,8.15
2023-05-15T10:10:59.761Z,9.30
2023-05-15T10:13:31.780Z,7.60
2023-05-15T10:16:00.477Z,7.55
2023-05-15T10:18:30.760Z,8.60
2023-05-15T10:21:01.385Z,7.60
2023-05-15T10:23:35.687Z,7.72
2023-05-15T10:26:07.686Z,8.23
2023-05-15T10:28:36.968Z,7.15
2023-05-15T10:31:05.563Z,7.00
2023-05-15T10:33:34.913Z,7.30
2023-05-15T10:36:04.622Z,7.00
2023-05-15T10:38:34.313Z,7.10
2023-05-15T10:41:16.112Z,7.75
2023-05-15T10:43:47.259Z,6.85
2023-05-15T10:46:16.160Z,7.22
2023-05-15T10:48:44.846Z,7.35
2023-05-15T10:51:19.266Z,6.90
2023-05-15T10:53:48.086Z,7.25
2023-05-15T10:56:19.393Z,6.35
2023-05-15T10:58:49.571Z,5.90
2023-05-15T11:01:29.545Z,7.05
2023-05-15T11:04:17.994Z,5.93
2023-05-15T11:06:50.340Z,5.80
2023-05-15T11:09:27.461Z,6.88
2023-05-15T11:11:58.022Z,6.97
2023-05-15T11:14:27.800Z,5.43
2023-05-15T11:17:03.825Z,5.72
2023-05-15T11:19:37.709Z,5.75
2023-05-15T11:22:08.951Z,5.68
2023-05-15T11:25:03.237Z,5.55
2023-05-15T11:27:32.273Z,27.88
2023-05-15T11:30:22.864Z,5.90
2023-05-15T11:32:56.502Z,6.45
2023-05-15T11:35:34.376Z,6.78
2023-05-15T11:38:18.072Z,6.57
2023-05-15T11:40:57.160Z,6.82
2023-05-15T11:43:27.214Z,6.32
2023-05-15T11:46:04.409Z,6.80
2023-05-15T11:48:49.273Z,6.65
2023-05-15T11:51:22.484Z,6.53
2023-05-15T11:53:54.713Z,6.38
2023-05-15T11:56:28.702Z,6.68
2023-05-15T11:58:59.069Z,6.78
2023-05-15T12:01:29.472Z,6.18
2023-05-15T12:03:57.817Z,6.72
2023-05-15T12:06:26.797Z,6.63
2023-05-15T12:08:56.782Z,6.45
2023-05-15T12:11:26.365Z,5.97
2023-05-15T12:13:55.085Z,8.07
2023-05-15T12:16:27.742Z,7.25
2023-05-15T12:18:59.332Z,7.10
2023-05-15T12:21:28.176Z,8.57
2023-05-15T12:24:07.131Z,9.40
2023-05-15T12:26:37.257Z,6.35
2023-05-15T12:29:05.886Z,7.95
2023-05-15T12:31:38.647Z,7.10
2023-05-15T12:34:07.000Z,7.82
2023-05-15T12:36:37.368Z,8.23
2023-05-15T12:39:08.244Z,7.50
2023-05-15T12:41:39.596Z,7.70
2023-05-15T12:44:15.903Z,7.55
2023-05-15T12:46:46.617Z,8.52
2023-05-15T12:49:21.133Z,9.15
2023-05-15T12:51:49.926Z,9.02
2023-05-15T12:54:21.772Z,9.20
2023-05-15T12:56:50.427Z,8.88
2023-05-15T12:59:19.413Z,8.88
2023-05-15T13:01:47.932Z,14.48
2023-05-15T13:04:16.745Z,10.02
2023-05-15T13:06:47.846Z,11.32
2023-05-15T13:09:22.891Z,11.07
2023-05-15T13:11:51.146Z,8.10
2023-05-15T13:14:19.621Z,9.20
2023-05-15T13:16:48.089Z,10.77
2023-05-15T13:19:16.956Z,11.88
2023-05-15T13:21:45.784Z,15.23
2023-05-15T13:24:13.927Z,20.00
2023-05-15T13:26:42.554Z,8.63
2023-05-15T13:29:12.653Z,12.80
2023-05-15T13:31:40.933Z,14.85
2023-05-15T13:34:09.229Z,20.85
2023-05-15T13:36:38.110Z,11.20
2023-05-15T13:39:06.765Z,48.25
2023-05-15T13:41:36.918Z,9.55
2023-05-15T13:44:04.991Z,11.57
2023-05-15T13:46:33.600Z,9.05
2023-05-15T13:49:01.990Z,8.75
2023-05-15T13:51:30.204Z,11.82
2023-05-15T13:53:58.338Z,10.35
2023-05-15T13:56:26.629Z,10.63
2023-05-15T13:58:54.639Z,9.95
2023-05-15T14:01:23.143Z,9.98
2023-05-15T14:03:51.343Z,8.88
2023-05-15T14:06:21.678Z,8.85
2023-05-15T14:08:49.852Z,14.45
2023-05-15T14:11:18.274Z,16.08
2023-05-15T14:13:47.564Z,11.25
2023-05-15T14:16:15.730Z,13.35
2023-05-15T14:18:43.724Z,21.30
2023-05-15T14:21:12.162Z,10.15
2023-05-15T14:23:40.226Z,10.85
2023-05-15T14:26:08.544Z,7.85
2023-05-15T14:28:36.788Z,7.53
2023-05-15T14:31:07.717Z,7.82
2023-05-15T14:33:36.021Z,14.65
2023-05-15T14:36:05.704Z,13.38
2023-05-15T14:38:38.487Z,9.07
2023-05-15T14:41:10.677Z,9.07
2023-05-15T14:43:41.097Z,12.68
2023-05-15T14:46:11.389Z,9.63
2023-05-15T14:48:39.693Z,12.02
2023-05-15T14:51:08.235Z,9.55
2023-05-15T14:53:36.350Z,9.80
2023-05-15T14:56:04.916Z,13.30
2023-05-15T14:58:33.137Z,28.73
2023-05-15T15:01:01.739Z,11.80
2023-05-15T15:03:33.297Z,10.52
2023-05-15T15:06:04.657Z,8.63
2023-05-15T15:08:32.999Z,9.40
2023-05-15T15:11:02.191Z,16.60
2023-05-15T15:13:30.266Z,28.92
2023-05-15T15:15:58.830Z,14.70
2023-05-15T15:18:26.819Z,14.18
2023-05-15T15:20:57.250Z,18.38
2023-05-15T15:23:26.274Z,36.22
2023-05-15T15:25:55.028Z,14.50
2023-05-15T15:28:23.313Z,14.93
2023-05-15T15:30:52.254Z,12.43
2023-05-15T15:33:20.708Z,15.48
2023-05-15T15:35:49.356Z,18.80
2023-05-15T15:38:19.104Z,18.23
2023-05-15T15:40:47.726Z,24.38
2023-05-15T15:43:16.636Z,15.05
2023-05-15T15:45:45.352Z,14.18
2023-05-15T15:48:16.127Z,28.60
2023-05-15T15:50:44.762Z,19.63
2023-05-15T15:53:14.996Z,23.70
2023-05-15T15:55:47.155Z,21.55
2023-05-15T15:58:19.934Z,31.30
2023-05-15T16:00:48.531Z,23.83
2023-05-15T16:03:16.974Z,29.42
2023-05-15T16:05:48.620Z,38.88
2023-05-15T16:08:16.810Z,23.80
2023-05-15T16:10:45.747Z,24.92
2023-05-15T16:13:14.770Z,24.10
2023-05-15T16:15:45.047Z,28.05
2023-05-15T16:18:13.693Z,22.15
2023-05-15T16:20:42.295Z,25.35
2023-05-15T16:23:15.469Z,30.88
2023-05-15T16:25:51.704Z,34.10
2023-05-15T16:28:20.160Z,37.15
2023-05-15T16:30:51.420Z,26.63
2023-05-15T16:33:20.987Z,31.27
2023-05-15T16:35:49.822Z,38.50
2023-05-15T16:38:19.465Z,17.77
2023-05-15T16:40:48.054Z,23.73
2023-05-15T16:43:16.807Z,24.00
2023-05-15T16:45:45.059Z,25.20
2023-05-15T16:48:13.322Z,28.30
2023-05-15T16:50:43.949Z,36.60
2023-05-15T16:53:17.507Z,39.38
2023-05-15T16:55:47.217Z,50.95
2023-05-15T16:58:15.846Z,41.03
2023-05-15T17:00:44.245Z,41.78
2023-05-15T17:03:12.977Z,56.03
2023-05-15T17:05:41.954Z,35.72
2023-05-15T17:08:11.236Z,22.10
2023-05-15T17:10:39.787Z,25.83
2023-05-15T17:13:08.256Z,22.85
2023-05-15T17:15:36.770Z,22.80
2023-05-15T17:18:05.810Z,21.02
2023-05-15T17:20:33.979Z,29.13
2023-05-15T17:23:02.985Z,25.27
2023-05-15T17:25:34.182Z,25.45
2023-05-15T17:28:02.487Z,24.25
2023-05-15T17:30:30.862Z,24.65
2023-05-15T17:33:00.603Z,25.17
2023-05-15T17:35:32.718Z,32.17
2023-05-15T17:38:01.635Z,32.15
2023-05-15T17:40:29.926Z,23.60
2023-05-15T17:42:58.009Z,23.55
2023-05-15T17:45:27.195Z,30.58
2023-05-15T17:48:02.652Z,28.05
2023-05-15T17:50:31.868Z,24.00
2023-05-15T17:52:59.873Z,25.48
2023-05-15T17:55:28.925Z,37.53
2023-05-15T17:57:56.772Z,21.00
2023-05-15T18:00:25.548Z,26.48
2023-05-15T18:02:53.967Z,28.77
2023-05-15T18:05:23.535Z,31.30
2023-05-15T18:07:51.689Z,26.90
2023-05-15T18:10:20.317Z,28.00
2023-05-15T18:12:48.267Z,26.05
2023-05-15T18:15:16.819Z,29.60
2023-05-15T18:17:45.424Z,49.28
2023-05-15T18:20:13.958Z,28.58
2023-05-15T18:22:43.438Z,34.47
2023-05-15T18:25:11.993Z,25.20
2023-05-15T18:27:40.780Z,22.08
2023-05-15T18:30:09.632Z,32.25
2023-05-15T18:32:38.207Z,36.13
2023-05-15T18:35:07.059Z,31.30
2023-05-15T18:37:35.360Z,25.13
2023-05-15T18:40:05.439Z,24.80
2023-05-15T18:42:33.978Z,34.22
2023-05-15T18:45:02.614Z,25.23
2023-05-15T18:47:32.590Z,32.38
2023-05-15T18:50:01.195Z,25.98
2023-05-15T18:52:29.449Z,38.72
2023-05-15T18:54:58.627Z,44.95
2023-05-15T18:57:27.306Z,39.85
2023-05-15T18:59:56.985Z,33.15
2023-05-15T19:02:26.416Z,50.83
2023-05-15T19:04:54.631Z,28.35
2023-05-15T19:07:24.095Z,37.00
2023-05-15T19:09:52.967Z,33.55
2023-05-15T19:12:21.237Z,48.05
2023-05-15T19:14:49.788Z,34.25
2023-05-15T19:17:20.346Z,31.42
2023-05-15T19:19:48.982Z,34.83
2023-05-15T19:22:17.674Z,34.17
2023-05-15T19:24:45.948Z,29.40
2023-05-15T19:27:14.146Z,30.60
2023-05-15T19:29:43.449Z,32.22
2023-05-15T19:32:11.713Z,27.42
2023-05-15T19:34:40.126Z,27.17
2023-05-15T19:37:08.385Z,28.15
2023-05-15T19:39:36.978Z,29.25
2023-05-15T19:42:05.304Z,29.92
2023-05-15T19:44:33.946Z,25.63
2023-05-15T19:47:02.016Z,32.22
2023-05-15T19:49:30.555Z,23.63
2023-05-15T19:51:58.981Z,25.08
2023-05-15T19:54:27.738Z,27.38
2023-05-15T19:56:57.816Z,29.65
2023-05-15T19:59:26.507Z,23.83
2023-05-15T20:01:54.945Z,22.23
2023-05-15T20:04:23.754Z,23.08
2023-05-15T20:06:51.957Z,21.60
2023-05-15T20:09:27.872Z,24.40
2023-05-15T20:11:56.566Z,27.20
2023-05-15T20:14:25.546Z,21.95
2023-05-15T20:16:53.720Z,23.42
2023-05-15T20:19:22.160Z,24.05
2023-05-15T20:21:51.051Z,23.45
2023-05-15T20:24:19.777Z,23.83
2023-05-15T20:26:47.813Z,22.67
2023-05-15T20:29:16.664Z,21.45
2023-05-15T20:31:45.843Z,25.63
2023-05-15T20:34:15.361Z,24.35
2023-05-15T20:36:43.982Z,21.88
2023-05-15T20:39:13.214Z,24.02
2023-05-15T20:41:41.606Z,20.23
2023-05-15T20:44:10.482Z,18.80
2023-05-15T20:46:43.625Z,28.02
2023-05-15T20:49:12.405Z,18.58
2023-05-15T20:51:41.825Z,65.80
2023-05-15T20:54:10.438Z,15.88
2023-05-15T20:56:38.385Z,21.30
2023-05-15T20:59:06.861Z,16.95
2023-05-15T21:01:34.891Z,20.98
2023-05-15T21:04:03.320Z,22.38
2023-05-15T21:06:31.381Z,26.92
2023-05-15T21:09:00.003Z,16.40
2023-05-15T21:11:29.405Z,14.73
2023-05-15T21:13:58.093Z,17.58
2023-05-15T21:16:26.344Z,15.07
2023-05-15T21:18:54.954Z,18.52
2023-05-15T21:21:23.464Z,16.00
2023-05-15T21:23:51.700Z,26.20
2023-05-15T21:26:20.122Z,17.80
2023-05-15T21:28:48.271Z,33.97
2023-05-15T21:31:16.248Z,19.00
2023-05-15T21:33:45.053Z,20.33
2023-05-15T21:36:13.541Z,18.45
2023-05-15T21:38:43.230Z,18.85
2023-05-15T21:41:11.901Z,17.98
2023-05-15T21:43:40.757Z,24.27
2023-05-15T21:46:08.763Z,15.18
2023-05-15T21:48:37.903Z,14.40
2023-05-15T21:51:08.016Z,19.00
2023-05-15T21:53:36.442Z,23.17
2023-05-15T21:56:04.854Z,13.95
2023-05-15T21:58:33.287Z,14.40
2023-05-15T22:01:01.546Z,13.27
2023-05-15T22:03:29.804Z,13.60
2023-05-15T22:05:57.954Z,12.43
2023-05-15T22:08:27.126Z,12.00
2023-05-15T22:10:55.832Z,11.57
2023-05-15T22:13:24.174Z,10.63
2023-05-15T22:15:52.165Z,11.68
2023-05-15T22:18:21.731Z,11.63
2023-05-15T22:20:50.666Z,11.60
2023-05-15T22:23:19.337Z,13.13
2023-05-15T22:25:49.432Z,12.57
2023-05-15T22:28:18.229Z,14.32
2023-05-15T22:30:46.418Z,12.82
2023-05-15T22:33:15.123Z,12.75
2023-05-15T22:35:43.212Z,15.38
2023-05-15T22:38:11.427Z,14.10
2023-05-15T22:40:39.484Z,12.00
2023-05-15T22:43:07.969Z,13.63
2023-05-15T22:45:36.162Z,20.83
2023-05-15T22:48:04.734Z,16.42
2023-05-15T22:50:32.979Z,11.88
2023-05-15T22:53:01.379Z,12.63
2023-05-15T22:55:29.644Z,11.45
2023-05-15T22:57:58.144Z,13.52
2023-05-15T23:00:26.378Z,11.90
2023-05-15T23:02:55.548Z,12.52
2023-05-15T23:05:25.025Z,13.45
2023-05-15T23:07:53.840Z,12.60
2023-05-15T23:10:21.994Z,12.48
2023-05-15T23:12:51.028Z,12.50
2023-05-15T23:15:19.214Z,13.75
2023-05-15T23:17:47.726Z,12.63
2023-05-15T23:20:15.970Z,12.60
2023-05-15T23:22:44.319Z,12.73
2023-05-15T23:25:12.604Z,13.30
2023-05-15T23:27:40.838Z,12.80
2023-05-15T23:30:09.918Z,13.00
2023-05-15T23:32:38.474Z,14.27
2023-05-15T23:35:06.855Z,14.10
2023-05-15T23:37:35.129Z,14.40
2023-05-15T23:40:06.156Z,14.93
2023-05-15T23:42:36.326Z,14.25
2023-05-15T23:45:04.367Z,14.57
2023-05-15T23:47:32.780Z,14.70
2023-05-15T23:50:01.473Z,15.32
2023-05-15T23:52:29.971Z,15.25
2023-05-15T23:54:58.664Z,14.55
2023-05-15T23:57:26.973Z,15.35
2023-05-15T23:59:54.916Z,15.40
